createdAt,value
2022-10-04T00:00:24.152Z,5.00
2022-10-04T00:02:53.599Z,5.00
2022-10-04T00:05:24.088Z,5.20
2022-10-04T00:07:58.707Z,4.90
2022-10-04T00:10:34.147Z,4.90
2022-10-04T00:13:07.904Z,4.80
2022-10-04T00:15:37.371Z,4.80
2022-10-04T00:18:28.718Z,5.00
2022-10-04T00:20:58.765Z,5.10
2022-10-04T00:23:25.324Z,5.20
2022-10-04T00:26:02.926Z,5.30
2022-10-04T00:28:39.846Z,5.20
2022-10-04T00:31:12.464Z,5.10
2022-10-04T00:33:40.505Z,5.10
2022-10-04T00:36:30.376Z,5.20
2022-10-04T00:39:09.398Z,5.20
2022-10-04T00:41:48.034Z,5.50
2022-10-04T00:44:21.489Z,5.40
2022-10-04T00:46:49.460Z,5.40
2022-10-04T00:49:20.919Z,5.30
2022-10-04T00:51:56.038Z,5.20
2022-10-04T00:54:36.906Z,5.20
2022-10-04T00:57:08.387Z,5.20
2022-10-04T00:59:59.139Z,5.30
2022-10-04T01:02:47.652Z,5.50
2022-10-04T01:05:19.726Z,5.60
2022-10-04T01:07:55.719Z,5.60
2022-10-04T01:10:25.308Z,5.70
2022-10-04T01:13:04.498Z,5.60
2022-10-04T01:15:48.455Z,5.50
2022-10-04T01:18:19.655Z,5.50
2022-10-04T01:20:54.672Z,5.50
2022-10-04T01:23:35.624Z,5.50
2022-10-04T01:26:26.349Z,5.60
2022-10-04T01:28:54.237Z,5.70
2022-10-04T01:31:21.687Z,5.80
2022-10-04T01:33:48.678Z,5.80
2022-10-04T01:36:15.490Z,5.80
2022-10-04T01:38:42.296Z,5.80
2022-10-04T01:41:11.739Z,5.90
2022-10-04T01:43:41.170Z,6.00
2022-10-04T01:46:16.721Z,6.00
2022-10-04T01:48:45.714Z,5.90
2022-10-04T01:51:24.802Z,6.00
2022-10-04T01:54:00.144Z,6.00
2022-10-04T01:56:41.631Z,6.00
2022-10-04T01:59:15.719Z,6.10
2022-10-04T02:01:55.197Z,6.20
2022-10-04T02:04:27.528Z,6.10
2022-10-04T02:07:10.363Z,6.20
2022-10-04T02:09:42.464Z,6.20
2022-10-04T02:12:10.318Z,6.20
2022-10-04T02:14:39.105Z,6.10
2022-10-04T02:17:10.417Z,6.10
2022-10-04T02:19:41.249Z,6.30
2022-10-04T02:22:10.438Z,6.20
2022-10-04T02:24:44.210Z,6.30
2022-10-04T02:27:11.979Z,6.30
2022-10-04T02:29:38.707Z,6.20
2022-10-04T02:32:26.896Z,6.20
2022-10-04T02:34:55.760Z,6.40
2022-10-04T02:37:24.579Z,6.50
2022-10-04T02:39:58.342Z,6.60
2022-10-04T02:42:25.408Z,6.50
2022-10-04T02:45:09.872Z,6.50
2022-10-04T02:47:51.648Z,6.50
2022-10-04T02:50:26.774Z,6.50
2022-10-04T02:53:01.383Z,6.70
2022-10-04T02:55:31.032Z,6.80
2022-10-04T02:57:58.664Z,6.90
2022-10-04T03:00:30.591Z,6.90
2022-10-04T03:03:35.042Z,6.90
2022-10-04T03:06:08.613Z,6.90
2022-10-04T03:08:50.034Z,6.90
2022-10-04T03:11:22.521Z,6.90
2022-10-04T03:13:52.834Z,6.90
2022-10-04T03:16:20.792Z,6.90
2022-10-04T03:18:50.034Z,6.80
2022-10-04T03:21:20.653Z,6.80
2022-10-04T03:23:50.184Z,7.00
2022-10-04T03:26:35.769Z,6.90
2022-10-04T03:29:09.460Z,6.90
2022-10-04T03:31:47.095Z,6.90
2022-10-04T03:34:21.370Z,6.90
2022-10-04T03:36:49.574Z,7.00
2022-10-04T03:39:26.782Z,7.00
2022-10-04T03:41:54.233Z,7.10
2022-10-04T03:44:24.140Z,7.10
2022-10-04T03:46:51.118Z,7.30
2022-10-04T03:49:33.429Z,7.30
2022-10-04T03:52:00.976Z,7.30
2022-10-04T03:54:29.026Z,7.20
2022-10-04T03:56:56.994Z,7.30
2022-10-04T03:59:26.424Z,7.20
2022-10-04T04:02:12.448Z,7.30
2022-10-04T04:04:44.062Z,7.30
2022-10-04T04:07:43.366Z,7.20
2022-10-04T04:10:17.478Z,7.10
2022-10-04T04:12:58.507Z,7.10
2022-10-04T04:15:30.338Z,7.30
2022-10-04T04:18:22.128Z,7.10
2022-10-04T04:20:51.786Z,7.10
2022-10-04T04:23:34.139Z,7.00
2022-10-04T04:26:25.170Z,6.90
2022-10-04T04:28:56.530Z,6.90
2022-10-04T04:31:31.601Z,6.90
2022-10-04T04:34:01.120Z,6.90
2022-10-04T04:36:32.357Z,6.90
2022-10-04T04:39:32.297Z,6.90
2022-10-04T04:41:59.922Z,7.00
2022-10-04T04:44:27.010Z,6.90
2022-10-04T04:46:56.214Z,7.00
2022-10-04T04:49:24.066Z,7.30
2022-10-04T04:51:52.276Z,7.30
2022-10-04T04:54:23.803Z,7.30
2022-10-04T04:56:53.035Z,7.40
2022-10-04T04:59:22.589Z,7.50
2022-10-04T05:01:50.227Z,7.50
2022-10-04T05:04:24.434Z,7.50
2022-10-04T05:07:00.869Z,7.50
2022-10-04T05:09:37.064Z,7.60
2022-10-04T05:12:23.532Z,7.60
2022-10-04T05:14:56.554Z,7.50
2022-10-04T05:17:27.698Z,7.60
2022-10-04T05:19:58.565Z,7.60
2022-10-04T05:22:26.857Z,7.60
2022-10-04T05:24:57.810Z,7.70
2022-10-04T05:27:38.737Z,7.70
2022-10-04T05:30:30.492Z,7.80
2022-10-04T05:33:03.210Z,7.90
2022-10-04T05:35:38.428Z,7.80
2022-10-04T05:38:39.316Z,7.80
2022-10-04T05:41:35.471Z,7.80
2022-10-04T05:44:04.840Z,7.70
2022-10-04T05:46:34.578Z,7.70
2022-10-04T05:49:19.374Z,7.80
2022-10-04T05:51:56.118Z,7.80
2022-10-04T05:54:25.144Z,7.80
2022-10-04T05:57:10.120Z,7.90
2022-10-04T06:00:00.526Z,7.90
2022-10-04T06:03:03.737Z,8.00
2022-10-04T06:05:54.073Z,7.90
2022-10-04T06:08:51.501Z,7.90
2022-10-04T06:11:38.004Z,7.90
2022-10-04T06:14:30.573Z,7.80
2022-10-04T06:17:40.594Z,7.90
2022-10-04T06:20:10.129Z,7.80
2022-10-04T06:22:46.894Z,7.80
2022-10-04T06:25:42.315Z,7.90
2022-10-04T06:28:14.889Z,7.90
2022-10-04T06:31:00.302Z,8.10
2022-10-04T06:33:43.987Z,8.30
2022-10-04T06:36:28.995Z,8.40
2022-10-04T06:39:20.040Z,8.40
2022-10-04T06:42:12.089Z,8.40
2022-10-04T06:44:53.847Z,8.40
2022-10-04T06:47:23.442Z,8.50
2022-10-04T06:50:14.222Z,8.70
2022-10-04T06:52:46.067Z,8.70
2022-10-04T06:55:40.453Z,8.80
2022-10-04T06:58:19.374Z,8.90
2022-10-04T07:00:56.743Z,8.80
2022-10-04T07:03:30.844Z,9.00
2022-10-04T07:06:07.132Z,9.10
2022-10-04T07:08:36.828Z,9.10
2022-10-04T07:11:12.425Z,9.30
2022-10-04T07:13:52.255Z,9.50
2022-10-04T07:16:29.863Z,9.70
2022-10-04T07:18:59.506Z,9.70
2022-10-04T07:21:37.546Z,9.80
2022-10-04T07:24:08.919Z,9.90
2022-10-04T07:26:52.829Z,9.90
2022-10-04T07:29:31.754Z,10.10
2022-10-04T07:32:05.458Z,10.20
2022-10-04T07:34:46.971Z,10.10
2022-10-04T07:37:14.995Z,10.20
2022-10-04T07:40:08.546Z,10.30
2022-10-04T07:42:46.298Z,10.40
2022-10-04T07:45:17.585Z,10.40
2022-10-04T07:47:44.788Z,10.50
2022-10-04T07:50:25.508Z,10.70
2022-10-04T07:52:54.563Z,10.80
2022-10-04T07:55:56.520Z,11.00
2022-10-04T07:58:23.253Z,11.20
2022-10-04T08:01:01.069Z,11.40
2022-10-04T08:03:39.711Z,11.50
2022-10-04T08:06:23.085Z,11.50
2022-10-04T08:09:20.759Z,11.90
2022-10-04T08:12:07.400Z,12.10
2022-10-04T08:14:40.074Z,12.30
2022-10-04T08:17:26.082Z,12.70
2022-10-04T08:19:55.779Z,12.80
2022-10-04T08:22:33.636Z,12.70
2022-10-04T08:25:20.904Z,12.90
2022-10-04T08:28:16.814Z,12.90
2022-10-04T08:30:59.550Z,12.90
2022-10-04T08:34:04.417Z,13.20
2022-10-04T08:36:43.621Z,13.30
2022-10-04T08:39:42.437Z,13.50
2022-10-04T08:42:46.980Z,13.90
2022-10-04T08:45:38.372Z,14.20
2022-10-04T08:48:22.533Z,14.50
2022-10-04T08:51:01.143Z,14.70
2022-10-04T08:53:49.015Z,14.60
2022-10-04T08:56:46.261Z,14.60
2022-10-04T08:59:24.958Z,14.80
2022-10-04T09:01:52.327Z,14.90
2022-10-04T09:04:41.247Z,14.90
2022-10-04T09:07:34.206Z,14.70
2022-10-04T09:10:28.910Z,14.80
2022-10-04T09:13:36.279Z,14.80
2022-10-04T09:16:17.451Z,14.90
2022-10-04T09:18:51.854Z,15.10
2022-10-04T09:21:45.325Z,15.30
2022-10-04T09:24:32.928Z,15.50
2022-10-04T09:27:23.098Z,15.50
2022-10-04T09:30:19.633Z,15.60
2022-10-04T09:32:49.243Z,15.70
2022-10-04T09:36:03.286Z,15.70
2022-10-04T09:39:05.886Z,15.70
2022-10-04T09:41:52.852Z,15.90
2022-10-04T09:44:46.521Z,16.10
2022-10-04T09:47:31.022Z,16.10
2022-10-04T09:50:37.131Z,16.10
2022-10-04T09:53:28.533Z,16.50
2022-10-04T09:56:28.819Z,16.60
2022-10-04T09:59:18.433Z,16.80
2022-10-04T10:02:00.094Z,17.00
2022-10-04T10:05:03.063Z,16.90
2022-10-04T10:08:03.929Z,16.60
2022-10-04T10:11:10.495Z,16.60
2022-10-04T10:14:16.175Z,16.60
2022-10-04T10:17:14.553Z,16.40
2022-10-04T10:20:19.643Z,16.40
2022-10-04T10:23:30.306Z,16.70
2022-10-04T10:26:23.956Z,16.70
2022-10-04T10:29:02.211Z,16.80
2022-10-04T10:31:41.932Z,16.80
2022-10-04T10:34:24.939Z,16.80
2022-10-04T10:37:09.807Z,16.90
2022-10-04T10:40:14.305Z,16.80
2022-10-04T10:43:03.041Z,17.20
2022-10-04T10:45:48.276Z,17.30
2022-10-04T10:48:40.286Z,17.10
2022-10-04T10:51:18.422Z,17.00
2022-10-04T10:54:09.306Z,17.00
2022-10-04T10:56:38.705Z,17.00
2022-10-04T10:59:54.794Z,17.00
2022-10-04T11:02:50.003Z,17.30
2022-10-04T11:05:48.115Z,17.30
2022-10-04T11:08:36.642Z,17.10
2022-10-04T11:11:18.550Z,17.20
2022-10-04T11:14:22.213Z,17.20
2022-10-04T11:17:10.522Z,17.30
2022-10-04T11:20:24.554Z,17.20
2022-10-04T11:23:25.323Z,17.30
2022-10-04T11:26:07.739Z,17.40
2022-10-04T11:29:10.198Z,17.40
2022-10-04T11:31:43.693Z,17.60
2022-10-04T11:34:50.653Z,17.70
2022-10-04T11:37:43.514Z,17.60
2022-10-04T11:40:12.970Z,17.70
2022-10-04T11:43:17.448Z,17.50
2022-10-04T11:45:44.616Z,17.60
2022-10-04T11:48:43.229Z,17.60
2022-10-04T11:51:48.539Z,17.40
2022-10-04T11:54:47.724Z,17.60
2022-10-04T11:57:42.067Z,17.70
2022-10-04T12:00:23.773Z,17.80
2022-10-04T12:03:05.463Z,18.10
2022-10-04T12:05:49.372Z,18.10
2022-10-04T12:08:31.189Z,17.90
2022-10-04T12:11:15.974Z,17.70
2022-10-04T12:14:16.962Z,17.60
2022-10-04T12:17:08.426Z,17.70
2022-10-04T12:20:16.180Z,17.60
2022-10-04T12:23:15.222Z,17.80
2022-10-04T12:25:53.616Z,17.90
2022-10-04T12:28:34.812Z,18.00
2022-10-04T12:31:10.486Z,17.90
2022-10-04T12:33:40.016Z,17.80
2022-10-04T12:36:39.315Z,18.10
2022-10-04T12:39:30.914Z,18.20
2022-10-04T12:42:22.377Z,18.10
2022-10-04T12:45:33.941Z,18.20
2022-10-04T12:48:13.114Z,18.00
2022-10-04T12:50:45.501Z,18.10
2022-10-04T12:53:23.764Z,18.20
2022-10-04T12:56:22.189Z,18.30
2022-10-04T12:59:00.487Z,18.50
2022-10-04T13:01:39.394Z,18.50
2022-10-04T13:04:44.316Z,18.50
2022-10-04T13:07:23.709Z,18.50
2022-10-04T13:10:24.112Z,18.50
2022-10-04T13:13:12.857Z,18.60
2022-10-04T13:19:09.275Z,18.50
2022-10-04T13:21:36.309Z,18.50
2022-10-04T13:24:31.897Z,18.70
2022-10-04T13:27:08.773Z,18.60
2022-10-04T13:30:13.213Z,18.60
2022-10-04T13:33:26.242Z,18.60
2022-10-04T13:36:08.609Z,18.70
2022-10-04T13:39:03.603Z,18.80
2022-10-04T13:41:42.781Z,18.70
2022-10-04T13:44:27.754Z,18.70
2022-10-04T13:47:04.891Z,18.80
2022-10-04T13:49:56.446Z,18.70
2022-10-04T13:53:06.114Z,18.60
2022-10-04T13:56:06.926Z,18.70
2022-10-04T13:58:57.614Z,18.80
2022-10-04T14:01:41.080Z,18.90
2022-10-04T14:04:29.235Z,18.80
2022-10-04T14:07:12.208Z,18.70
2022-10-04T14:09:57.868Z,18.70
2022-10-04T14:12:45.383Z,18.70
2022-10-04T14:15:30.133Z,18.80
2022-10-04T14:17:56.762Z,19.00
2022-10-04T14:21:06.931Z,19.00
2022-10-04T14:23:58.701Z,18.80
2022-10-04T14:26:28.492Z,18.70
2022-10-04T14:29:28.698Z,18.80
2022-10-04T14:32:04.300Z,18.60
2022-10-04T14:34:53.634Z,18.60
2022-10-04T14:37:59.855Z,18.50
2022-10-04T14:40:50.740Z,18.30
2022-10-04T14:43:49.195Z,18.20
2022-10-04T14:46:46.704Z,18.00
2022-10-04T14:49:37.565Z,18.00
2022-10-04T14:52:31.207Z,18.00
2022-10-04T14:55:10.296Z,17.90
2022-10-04T14:57:49.981Z,17.80
2022-10-04T15:00:21.808Z,17.80
2022-10-04T15:03:14.961Z,17.90
2022-10-04T15:05:59.835Z,17.90
2022-10-04T15:08:54.748Z,17.70
2022-10-04T15:11:39.755Z,17.70
2022-10-04T15:15:05.261Z,17.70
2022-10-04T15:17:38.879Z,17.70
2022-10-04T15:20:20.562Z,17.60
2022-10-04T15:22:54.088Z,17.60
2022-10-04T15:26:08.109Z,17.60
2022-10-04T15:28:54.279Z,17.70
2022-10-04T15:31:37.059Z,17.60
2022-10-04T15:34:09.668Z,17.60
2022-10-04T15:36:43.587Z,17.40
2022-10-04T15:39:16.594Z,17.30
2022-10-04T15:42:00.219Z,17.20
2022-10-04T15:44:43.045Z,17.10
2022-10-04T15:47:26.866Z,17.00
2022-10-04T15:50:32.806Z,16.90
2022-10-04T15:53:37.037Z,16.90
2022-10-04T15:56:21.540Z,16.80
2022-10-04T15:59:00.084Z,16.70
2022-10-04T16:02:08.054Z,16.60
2022-10-04T16:04:57.074Z,16.40
2022-10-04T16:07:27.807Z,16.30
2022-10-04T16:10:39.407Z,16.30
2022-10-04T16:13:35.632Z,16.20
2022-10-04T16:16:25.630Z,16.20
2022-10-04T16:19:21.648Z,16.00
2022-10-04T16:21:53.146Z,15.90
2022-10-04T16:24:19.699Z,15.90
2022-10-04T16:26:53.376Z,15.90
2022-10-04T16:30:14.544Z,15.90
2022-10-04T16:32:46.315Z,15.80
2022-10-04T16:35:23.171Z,15.70
2022-10-04T16:38:20.899Z,15.60
2022-10-04T16:41:09.245Z,15.50
2022-10-04T16:43:46.852Z,15.30
2022-10-04T16:46:25.439Z,15.20
2022-10-04T16:49:03.477Z,15.10
2022-10-04T16:51:50.537Z,15.00
2022-10-04T16:54:38.844Z,14.80
2022-10-04T16:57:17.993Z,14.80
2022-10-04T16:59:47.827Z,14.60
2022-10-04T17:02:45.129Z,14.50
2022-10-04T17:05:36.069Z,14.30
2022-10-04T17:08:16.325Z,14.20
2022-10-04T17:10:49.025Z,14.00
2022-10-04T17:13:24.747Z,14.10
2022-10-04T17:16:13.941Z,13.80
2022-10-04T17:19:08.382Z,13.70
2022-10-04T17:21:58.971Z,13.50
2022-10-04T17:24:52.833Z,13.40
2022-10-04T17:27:46.266Z,13.30
2022-10-04T17:30:19.911Z,13.10
2022-10-04T17:32:46.467Z,13.00
2022-10-04T17:35:50.340Z,12.90
2022-10-04T17:38:38.567Z,12.90
2022-10-04T17:41:29.756Z,12.80
2022-10-04T17:44:34.181Z,12.50
2022-10-04T17:47:50.199Z,12.60
2022-10-04T17:50:45.123Z,12.50
2022-10-04T17:53:39.350Z,12.50
2022-10-04T17:56:09.019Z,12.40
2022-10-04T17:58:44.383Z,12.20
2022-10-04T18:01:19.757Z,12.10
2022-10-04T18:04:08.961Z,12.10
2022-10-04T18:06:52.150Z,12.10
2022-10-04T18:09:33.864Z,12.10
2022-10-04T18:12:05.438Z,12.10
2022-10-04T18:14:57.447Z,12.00
2022-10-04T18:17:50.530Z,11.90
2022-10-04T18:20:22.511Z,11.80
2022-10-04T18:23:17.848Z,11.80
2022-10-04T18:25:45.797Z,11.70
2022-10-04T18:28:21.389Z,11.60
2022-10-04T18:31:32.236Z,11.50
2022-10-04T18:34:23.301Z,11.50
2022-10-04T18:37:11.613Z,11.40
2022-10-04T18:39:49.643Z,11.40
2022-10-04T18:42:35.162Z,11.40
2022-10-04T18:45:21.745Z,11.30
2022-10-04T18:47:50.753Z,11.40
2022-10-04T18:50:20.171Z,11.40
2022-10-04T18:52:55.959Z,11.20
2022-10-04T18:55:46.135Z,11.20
2022-10-04T18:58:46.780Z,11.00
2022-10-04T19:02:03.517Z,11.00
2022-10-04T19:04:59.479Z,11.10
2022-10-04T19:07:28.728Z,11.00
2022-10-04T19:10:13.762Z,10.90
2022-10-04T19:13:05.812Z,10.80
2022-10-04T19:15:56.758Z,10.70
2022-10-04T19:18:26.355Z,10.70
2022-10-04T19:21:08.762Z,10.70
2022-10-04T19:23:50.560Z,10.80
2022-10-04T19:26:32.888Z,10.80
2022-10-04T19:29:19.794Z,10.90
2022-10-04T19:32:24.518Z,10.80
2022-10-04T19:34:57.073Z,10.80
2022-10-04T19:37:40.061Z,10.60
2022-10-04T19:40:24.607Z,10.60
2022-10-04T19:43:03.387Z,10.50
2022-10-04T19:45:33.258Z,10.60
2022-10-04T19:48:05.923Z,10.60
2022-10-04T19:50:39.876Z,10.50
2022-10-04T19:53:40.598Z,10.30
2022-10-04T19:56:23.618Z,10.20
2022-10-04T19:59:10.244Z,10.40
2022-10-04T20:01:38.531Z,10.50
2022-10-04T20:04:32.204Z,10.50
2022-10-04T20:07:00.676Z,10.50
2022-10-04T20:09:36.517Z,10.40
2022-10-04T20:12:05.194Z,10.20
2022-10-04T20:14:32.078Z,10.20
2022-10-04T20:17:00.624Z,10.10
2022-10-04T20:19:30.332Z,10.00
2022-10-04T20:22:28.063Z,10.00
2022-10-04T20:24:57.729Z,9.80
2022-10-04T20:27:28.415Z,9.80
2022-10-04T20:29:56.789Z,9.70
2022-10-04T20:32:26.478Z,9.70
2022-10-04T20:34:55.065Z,9.80
2022-10-04T20:37:22.015Z,9.80
2022-10-04T20:39:51.214Z,9.90
2022-10-04T20:42:28.658Z,9.80
2022-10-04T20:45:22.910Z,9.80
2022-10-04T20:47:51.205Z,9.70
2022-10-04T20:50:39.243Z,9.60
2022-10-04T20:53:14.823Z,9.70
2022-10-04T20:55:44.048Z,9.70
2022-10-04T20:58:34.898Z,9.80
2022-10-04T21:01:38.189Z,9.80
2022-10-04T21:04:18.999Z,9.70
2022-10-04T21:06:55.043Z,9.60
2022-10-04T21:09:21.993Z,9.60
2022-10-04T21:11:52.068Z,9.60
2022-10-04T21:14:23.465Z,9.60
2022-10-04T21:16:52.514Z,9.70
2022-10-04T21:19:42.950Z,9.60
2022-10-04T21:22:30.848Z,9.60
2022-10-04T21:25:06.378Z,9.60
2022-10-04T21:27:38.176Z,9.60
2022-10-04T21:30:13.611Z,9.60
2022-10-04T21:32:40.427Z,9.60
2022-10-04T21:35:08.393Z,9.60
2022-10-04T21:37:35.899Z,9.70
2022-10-04T21:40:03.620Z,9.60
2022-10-04T21:42:30.197Z,9.60
2022-10-04T21:44:56.998Z,9.60
2022-10-04T21:47:23.700Z,9.50
2022-10-04T21:49:51.740Z,9.60
2022-10-04T21:52:18.785Z,9.60
2022-10-04T21:54:45.883Z,9.60
2022-10-04T21:57:13.299Z,9.60
2022-10-04T21:59:39.994Z,9.70
2022-10-04T22:02:07.652Z,9.60
2022-10-04T22:04:34.696Z,9.60
2022-10-04T22:07:01.399Z,9.50
2022-10-04T22:09:28.986Z,9.50
2022-10-04T22:11:55.609Z,9.50
2022-10-04T22:14:22.207Z,9.50
2022-10-04T22:16:49.314Z,9.50
2022-10-04T22:19:16.492Z,9.50
2022-10-04T22:21:43.165Z,9.40
2022-10-04T22:24:18.933Z,9.40
2022-10-04T22:26:46.193Z,9.30
2022-10-04T22:29:15.124Z,9.20
2022-10-04T22:31:50.677Z,9.30
2022-10-04T22:34:19.757Z,9.40
2022-10-04T22:36:48.741Z,9.10
2022-10-04T22:39:17.803Z,8.80
2022-10-04T22:41:52.297Z,8.70
2022-10-04T22:44:22.787Z,8.70
2022-10-04T22:46:55.252Z,8.70
2022-10-04T22:49:44.384Z,8.70
2022-10-04T22:52:22.610Z,8.80
2022-10-04T22:54:51.920Z,8.70
2022-10-04T22:57:19.711Z,8.80
2022-10-04T22:59:52.778Z,9.00
2022-10-04T23:02:26.596Z,9.10
2022-10-04T23:05:00.820Z,9.30
2022-10-04T23:07:27.491Z,9.40
2022-10-04T23:09:54.060Z,9.40
2022-10-04T23:12:21.030Z,9.40
2022-10-04T23:14:47.624Z,9.40
2022-10-04T23:17:26.071Z,9.30
2022-10-04T23:19:56.362Z,9.30
2022-10-04T23:22:27.420Z,9.20
2022-10-04T23:24:55.364Z,9.10
2022-10-04T23:27:22.682Z,9.10
2022-10-04T23:29:58.944Z,9.20
2022-10-04T23:32:26.187Z,9.10
2022-10-04T23:34:56.635Z,8.80
2022-10-04T23:37:27.295Z,8.90
2022-10-04T23:39:54.061Z,9.00
2022-10-04T23:42:28.753Z,9.10
2022-10-04T23:45:00.010Z,9.10
2022-10-04T23:47:37.335Z,8.90
2022-10-04T23:50:24.874Z,8.90
2022-10-04T23:52:55.074Z,8.80
2022-10-04T23:55:26.927Z,8.90
2022-10-04T23:57:53.515Z,9.10
